createdAt,value
2019-05-05T00:02:04.334Z,99920.27
2019-05-05T00:04:45.483Z,99925.45
2019-05-05T00:07:18.409Z,99919.78
2019-05-05T00:09:47.438Z,99918.47
2019-05-05T00:12:31.326Z,99921.93
2019-05-05T00:15:19.328Z,99916.28
2019-05-05T00:17:48.715Z,99920.13
2019-05-05T00:20:17.807Z,99920.56
2019-05-05T00:22:46.886Z,99920.09
2019-05-05T00:25:15.945Z,99922.67
2019-05-05T00:27:45.328Z,99923.95
2019-05-05T00:30:14.518Z,99929.12
2019-05-05T00:32:44.258Z,99923.48
2019-05-05T00:35:14.869Z,99926.95
2019-05-05T00:37:45.072Z,99927.34
2019-05-05T00:40:14.312Z,99927.77
2019-05-05T00:42:45.484Z,99937.67
2019-05-05T00:45:14.767Z,99935.05
2019-05-05T00:47:55.270Z,99944.09
2019-05-05T00:50:25.285Z,99945.38
2019-05-05T00:52:55.054Z,99945.28
2019-05-05T00:55:24.463Z,99946.97
2019-05-05T00:57:54.788Z,99945.23
2019-05-05T01:00:41.603Z,99947.80
2019-05-05T01:03:10.684Z,99950.82
2019-05-05T01:06:04.699Z,99956.00
2019-05-05T01:08:35.250Z,99953.78
2019-05-05T01:11:04.590Z,99948.52
2019-05-05T01:13:35.144Z,99954.58
2019-05-05T01:16:04.914Z,99952.83
2019-05-05T01:18:35.146Z,99953.25
2019-05-05T01:21:04.659Z,99953.22
2019-05-05T01:23:34.947Z,99951.89
2019-05-05T01:26:05.065Z,99959.25
2019-05-05T01:28:35.580Z,99958.80
2019-05-05T01:31:08.594Z,99955.34
2019-05-05T01:34:15.233Z,99954.02
2019-05-05T01:36:45.271Z,99954.40
2019-05-05T01:39:34.548Z,99962.10
2019-05-05T01:42:08.917Z,99958.62
2019-05-05T01:44:37.968Z,99954.75
2019-05-05T01:47:07.064Z,99964.23
2019-05-05T01:49:36.145Z,99959.03
2019-05-05T01:52:05.140Z,99966.35
2019-05-05T01:54:35.321Z,99961.16
2019-05-05T01:57:05.579Z,99974.14
2019-05-05T01:59:35.374Z,99965.88
2019-05-05T02:02:04.503Z,99963.28
2019-05-05T02:04:34.331Z,99958.91
2019-05-05T02:07:05.422Z,99961.95
2019-05-05T02:09:35.368Z,99968.41
2019-05-05T02:12:05.288Z,99968.38
2019-05-05T02:14:35.206Z,99965.74
2019-05-05T02:17:05.099Z,99973.09
2019-05-05T02:19:35.021Z,99965.30
2019-05-05T02:22:05.293Z,99973.95
2019-05-05T02:24:35.364Z,99966.16
2019-05-05T02:27:05.272Z,99963.56
2019-05-05T02:29:45.941Z,99962.70
2019-05-05T02:32:36.928Z,99962.25
2019-05-05T02:35:09.278Z,99955.31
2019-05-05T02:37:38.407Z,99958.36
2019-05-05T02:40:08.427Z,99965.30
2019-05-05T02:42:37.433Z,99967.05
2019-05-05T02:45:08.121Z,99968.78
2019-05-05T02:47:55.881Z,99972.30
2019-05-05T02:50:25.273Z,99974.08
2019-05-05T02:52:54.438Z,99970.63
2019-05-05T02:55:23.567Z,99972.34
2019-05-05T02:57:54.406Z,99971.96
2019-05-05T03:00:41.316Z,99975.00
2019-05-05T03:03:10.932Z,99973.33
2019-05-05T03:05:39.988Z,99974.11
2019-05-05T03:08:09.022Z,99988.06
2019-05-05T03:10:38.063Z,99974.72
2019-05-05T03:13:07.081Z,99976.08
2019-05-05T03:16:15.112Z,99971.45
2019-05-05T03:18:44.189Z,99973.22
2019-05-05T03:21:14.035Z,99979.16
2019-05-05T03:23:44.007Z,99973.98
2019-05-05T03:26:14.072Z,99975.76
2019-05-05T03:28:47.492Z,99980.95
2019-05-05T03:31:16.530Z,99972.72
2019-05-05T03:33:46.195Z,99971.39
2019-05-05T03:36:15.531Z,99974.02
2019-05-05T03:38:44.594Z,99978.80
2019-05-05T03:41:21.333Z,99978.92
2019-05-05T03:44:24.633Z,99978.53
2019-05-05T03:46:54.385Z,99980.78
2019-05-05T03:49:24.387Z,99981.72
2019-05-05T03:51:54.347Z,99977.55
2019-05-05T03:54:23.919Z,99986.31
2019-05-05T03:57:08.035Z,99987.70
2019-05-05T03:59:39.351Z,99992.06
2019-05-05T04:02:31.213Z,99991.67
2019-05-05T04:05:08.096Z,99993.86
2019-05-05T04:07:37.174Z,99996.47
2019-05-05T04:10:06.396Z,100002.52
2019-05-05T04:12:35.479Z,100004.71
2019-05-05T04:15:04.902Z,100012.12
2019-05-05T04:18:03.908Z,100013.47
2019-05-05T04:20:37.080Z,100008.32
2019-05-05T04:23:06.157Z,100011.44
2019-05-05T04:25:35.280Z,100014.52
2019-05-05T04:28:04.612Z,100011.55
2019-05-05T04:30:33.986Z,100014.62
2019-05-05T04:33:03.904Z,100015.55
2019-05-05T04:35:33.931Z,100023.84
2019-05-05T04:38:04.741Z,100027.81
2019-05-05T04:40:34.634Z,100026.55
2019-05-05T04:43:03.948Z,100025.31
2019-05-05T04:45:34.747Z,100024.05
2019-05-05T04:48:27.733Z,100028.03
2019-05-05T04:51:14.107Z,100038.48
2019-05-05T04:54:00.633Z,100042.05
2019-05-05T04:56:30.155Z,100042.95
2019-05-05T04:58:59.284Z,100052.08
2019-05-05T05:01:28.318Z,100045.59
2019-05-05T05:04:07.515Z,100052.14
2019-05-05T05:06:43.634Z,100056.06
2019-05-05T05:09:14.592Z,100060.84
2019-05-05T05:11:44.291Z,100065.66
2019-05-05T05:14:14.372Z,99900.81
2019-05-05T05:16:43.833Z,100061.77
2019-05-05T05:19:13.796Z,100071.78
2019-05-05T05:21:43.695Z,100074.86
2019-05-05T05:24:14.677Z,100064.51
2019-05-05T05:26:44.239Z,100071.98
2019-05-05T05:29:15.069Z,99845.73
2019-05-05T05:31:44.422Z,100077.32
2019-05-05T05:34:14.857Z,100079.94
2019-05-05T05:36:44.384Z,100087.38
2019-05-05T05:39:21.923Z,100080.85
2019-05-05T05:41:51.023Z,100082.20
2019-05-05T05:44:57.493Z,100080.08
2019-05-05T05:47:44.196Z,100082.71
2019-05-05T05:50:38.159Z,100084.50
2019-05-05T05:53:07.230Z,100097.59
2019-05-05T05:55:36.250Z,100101.58
2019-05-05T05:58:05.517Z,100109.02
2019-05-05T06:00:34.597Z,100105.96
2019-05-05T06:03:04.049Z,100103.80
2019-05-05T06:05:34.328Z,99791.08
2019-05-05T06:08:04.778Z,100106.41
2019-05-05T06:10:34.094Z,100117.77
2019-05-05T06:13:04.119Z,100114.69
2019-05-05T06:15:33.902Z,100120.34
2019-05-05T06:18:04.611Z,100124.71
2019-05-05T06:20:34.471Z,100116.38
2019-05-05T06:23:04.215Z,100119.42
2019-05-05T06:25:34.250Z,100114.66
2019-05-05T06:28:04.298Z,100117.70
2019-05-05T06:30:33.780Z,100121.63
2019-05-05T06:33:04.892Z,100124.66
2019-05-05T06:35:34.114Z,100127.29
2019-05-05T06:38:04.685Z,100133.80
2019-05-05T06:40:58.890Z,100138.15
2019-05-05T06:43:35.713Z,100134.21
2019-05-05T06:46:06.541Z,100137.65
2019-05-05T06:48:35.548Z,100142.43
2019-05-05T06:51:04.646Z,100150.25
2019-05-05T06:53:34.175Z,100148.47
2019-05-05T06:56:04.053Z,100150.62
2019-05-05T06:58:34.694Z,100141.83
2019-05-05T07:01:03.920Z,100142.27
2019-05-05T07:03:33.619Z,100144.46
2019-05-05T07:06:04.370Z,100148.80
2019-05-05T07:08:34.647Z,100155.39
2019-05-05T07:11:04.310Z,100159.75
2019-05-05T07:13:34.030Z,100151.45
2019-05-05T07:16:04.841Z,100156.72
2019-05-05T07:18:34.270Z,100156.72
2019-05-05T07:21:03.785Z,100151.48
2019-05-05T07:23:34.048Z,100151.94
2019-05-05T07:26:04.158Z,100154.12
2019-05-05T07:28:34.175Z,100152.34
2019-05-05T07:31:04.496Z,100152.30
2019-05-05T07:33:34.578Z,100156.61
2019-05-05T07:36:28.698Z,100158.77
2019-05-05T07:38:57.761Z,100152.19
2019-05-05T07:41:26.842Z,100165.25
2019-05-05T07:43:55.894Z,100160.03
2019-05-05T07:46:25.053Z,100164.78
2019-05-05T07:48:54.525Z,100170.00
2019-05-05T07:51:24.229Z,100173.02
2019-05-05T07:53:54.635Z,100168.59
2019-05-05T07:56:23.891Z,100177.25
2019-05-05T07:58:54.344Z,100166.18
2019-05-05T08:01:24.503Z,100166.86
2019-05-05T08:03:53.948Z,100161.42
2019-05-05T08:06:23.690Z,100161.31
2019-05-05T08:08:54.616Z,100163.97
2019-05-05T08:11:23.972Z,100160.02
2019-05-05T08:13:54.734Z,100163.59
2019-05-05T08:16:44.067Z,100164.83
2019-05-05T08:19:31.741Z,100169.06
2019-05-05T08:22:00.781Z,100164.92
2019-05-05T08:24:51.864Z,100160.29
2019-05-05T08:27:44.699Z,100165.78
2019-05-05T08:30:26.054Z,100167.25
2019-05-05T08:32:55.187Z,100165.97
2019-05-05T08:35:24.641Z,100170.92
2019-05-05T08:37:54.239Z,100169.64
2019-05-05T08:40:24.087Z,100168.32
2019-05-05T08:42:53.935Z,100167.92
2019-05-05T08:45:26.191Z,100165.52
2019-05-05T08:47:54.362Z,100162.28
2019-05-05T08:50:26.448Z,100160.22
2019-05-05T08:52:54.298Z,100163.14
2019-05-05T08:55:24.896Z,100160.71
2019-05-05T08:57:54.152Z,100167.58
2019-05-05T09:00:24.477Z,100162.05
2019-05-05T09:02:54.315Z,100166.59
2019-05-05T09:05:23.903Z,100165.42
2019-05-05T09:07:54.797Z,100167.27
2019-05-05T09:10:23.958Z,100170.73
2019-05-05T09:12:54.262Z,100176.52
2019-05-05T09:15:24.295Z,100180.47
2019-05-05T09:17:54.418Z,100180.82
2019-05-05T09:20:24.277Z,100182.80
2019-05-05T09:22:53.699Z,100181.56
2019-05-05T09:25:41.931Z,100179.11
2019-05-05T09:28:25.913Z,100178.29
2019-05-05T09:30:54.959Z,100172.60
2019-05-05T09:33:24.735Z,100178.67
2019-05-05T09:35:54.233Z,100177.59
2019-05-05T09:38:23.962Z,100173.95
2019-05-05T09:40:54.443Z,100174.40
2019-05-05T09:43:24.132Z,100175.23
2019-05-05T09:45:54.464Z,100180.75
2019-05-05T09:48:24.367Z,100169.98
2019-05-05T09:50:54.140Z,100169.20
2019-05-05T09:53:24.049Z,100172.30
2019-05-05T09:55:54.728Z,100173.50
2019-05-05T09:58:24.286Z,100179.14
2019-05-05T10:00:54.715Z,100175.86
2019-05-05T10:03:23.898Z,100178.16
2019-05-05T10:05:54.041Z,100180.71
2019-05-05T10:08:23.685Z,100178.33
2019-05-05T10:10:54.741Z,100177.06
2019-05-05T10:13:24.006Z,100180.21
2019-05-05T10:15:54.915Z,100179.11
2019-05-05T10:18:25.549Z,100176.91
2019-05-05T10:20:54.752Z,100179.92
2019-05-05T10:23:25.513Z,100186.74
2019-05-05T10:25:58.466Z,100184.69
2019-05-05T10:28:27.560Z,100195.38
2019-05-05T10:30:56.581Z,100198.88
2019-05-05T10:33:25.654Z,100212.42
2019-05-05T10:35:54.673Z,100211.81
2019-05-05T10:38:23.705Z,100216.07
2019-05-05T10:40:53.717Z,100214.45
2019-05-05T10:43:23.833Z,100212.59
2019-05-05T10:45:54.655Z,100216.45
2019-05-05T10:48:23.898Z,100227.77
2019-05-05T10:50:53.727Z,100224.06
2019-05-05T10:53:22.962Z,100223.87
2019-05-05T10:55:53.963Z,100228.73
2019-05-05T10:58:24.408Z,100229.98
2019-05-05T11:00:58.605Z,100231.94
2019-05-05T11:03:27.725Z,100230.48
2019-05-05T11:05:56.782Z,100238.97
2019-05-05T11:08:25.823Z,100233.19
2019-05-05T11:10:54.877Z,100232.19
2019-05-05T11:13:24.069Z,100228.48
2019-05-05T11:15:54.727Z,100231.91
2019-05-05T11:18:23.953Z,100227.80
2019-05-05T11:20:54.474Z,100229.23
2019-05-05T11:23:24.956Z,100228.07
2019-05-05T11:25:54.615Z,100226.47
2019-05-05T11:28:23.747Z,100225.99
2019-05-05T11:30:54.304Z,100233.98
2019-05-05T11:33:43.714Z,100227.22
2019-05-05T11:36:19.282Z,100228.48
2019-05-05T11:38:50.837Z,100225.88
2019-05-05T11:41:19.955Z,100212.32
2019-05-05T11:43:49.194Z,100216.20
2019-05-05T11:46:18.884Z,100208.59
2019-05-05T11:48:48.121Z,100213.27
2019-05-05T11:51:17.263Z,100205.16
2019-05-05T11:53:46.343Z,100203.52
2019-05-05T11:56:15.518Z,100209.43
2019-05-05T11:58:47.061Z,100208.75
2019-05-05T12:01:16.457Z,100202.62
2019-05-05T12:03:45.588Z,100202.31
2019-05-05T12:06:14.967Z,100201.81
2019-05-05T12:08:45.907Z,100195.73
2019-05-05T12:11:15.618Z,100189.09
2019-05-05T12:13:44.866Z,100185.13
2019-05-05T12:16:15.823Z,100187.48
2019-05-05T12:18:45.047Z,100186.14
2019-05-05T12:21:18.278Z,100189.38
2019-05-05T12:23:47.881Z,100191.79
2019-05-05T12:26:34.989Z,100186.40
2019-05-05T12:29:09.876Z,100193.91
2019-05-05T12:31:44.409Z,100190.66
2019-05-05T12:34:13.689Z,100166.09
2019-05-05T12:36:44.527Z,100205.94
2019-05-05T12:39:16.742Z,100219.32
2019-05-05T12:41:45.770Z,100241.83
2019-05-05T12:44:23.979Z,100244.48
2019-05-05T12:47:14.337Z,100244.62
2019-05-05T12:49:43.966Z,100258.03
2019-05-05T12:52:13.919Z,100266.77
2019-05-05T12:54:44.049Z,100277.87
2019-05-05T12:57:13.735Z,100280.64
2019-05-05T12:59:44.446Z,100283.00
2019-05-05T13:02:14.307Z,100289.06
2019-05-05T13:04:43.511Z,100210.63
2019-05-05T13:07:13.626Z,100290.48
2019-05-05T13:09:44.044Z,100281.84
2019-05-05T13:12:15.023Z,100270.73
2019-05-05T13:14:44.336Z,100262.22
2019-05-05T13:17:14.281Z,100254.42
2019-05-05T13:19:56.639Z,100254.02
2019-05-05T13:22:44.816Z,100252.17
2019-05-05T13:25:56.171Z,100255.58
2019-05-05T13:28:23.342Z,100251.83
2019-05-05T13:30:54.073Z,100238.84
2019-05-05T13:33:24.665Z,100239.84
2019-05-05T13:35:53.890Z,100241.23
2019-05-05T13:38:23.921Z,100242.92
2019-05-05T13:40:54.402Z,100246.03
2019-05-05T13:43:23.828Z,100236.84
2019-05-05T13:46:07.958Z,100225.31
2019-05-05T13:48:37.049Z,100226.56
2019-05-05T13:51:07.023Z,100218.26
2019-05-05T13:53:36.254Z,100216.84
2019-05-05T13:56:11.743Z,100222.70
2019-05-05T13:58:36.141Z,100214.29
2019-05-05T14:01:05.246Z,100216.53
2019-05-05T14:03:34.365Z,100213.45
2019-05-05T14:06:04.759Z,100209.09
2019-05-05T14:08:36.241Z,100212.07
2019-05-05T14:11:04.815Z,100207.86
2019-05-05T14:13:34.273Z,100206.14
2019-05-05T14:16:03.989Z,100207.71
2019-05-05T14:18:33.532Z,100208.80
2019-05-05T14:21:02.653Z,100209.45
2019-05-05T14:23:34.548Z,100208.19
2019-05-05T14:26:04.110Z,100207.98
2019-05-05T14:28:34.040Z,100205.62
2019-05-05T14:31:09.230Z,100217.63
2019-05-05T14:34:06.371Z,100210.57
2019-05-05T14:36:57.519Z,100214.17
2019-05-05T14:39:26.650Z,100216.58
2019-05-05T14:41:55.698Z,100218.00
2019-05-05T14:44:24.762Z,100210.64
2019-05-05T14:46:53.835Z,100208.40
2019-05-05T14:49:24.608Z,100204.94
2019-05-05T14:51:53.943Z,100200.79
2019-05-05T14:54:22.991Z,100202.56
2019-05-05T14:56:52.081Z,100200.64
2019-05-05T14:59:21.145Z,100206.53
2019-05-05T15:01:50.188Z,100206.13
2019-05-05T15:04:20.628Z,100204.11
2019-05-05T15:07:00.109Z,100198.28
2019-05-05T15:09:40.381Z,100200.99
2019-05-05T15:12:31.044Z,100202.34
2019-05-05T15:15:00.065Z,100202.28
2019-05-05T15:17:29.402Z,100202.27
2019-05-05T15:19:58.495Z,100202.51
2019-05-05T15:22:28.657Z,100200.63
2019-05-05T15:24:57.871Z,100207.55
2019-05-05T15:27:27.007Z,100208.50
2019-05-05T15:29:56.156Z,100215.95
2019-05-05T15:32:25.205Z,100215.52
2019-05-05T15:34:54.675Z,100212.34
2019-05-05T15:37:23.945Z,100217.10
2019-05-05T15:39:53.724Z,100209.49
2019-05-05T15:42:22.894Z,100217.63
2019-05-05T15:44:54.258Z,100215.58
2019-05-05T15:47:23.644Z,100214.66
2019-05-05T15:49:53.358Z,100213.72
2019-05-05T15:52:24.315Z,100211.30
2019-05-05T15:54:53.978Z,100203.59
2019-05-05T15:57:24.153Z,100204.81
2019-05-05T15:59:54.280Z,100199.47
2019-05-05T16:02:24.409Z,100195.27
2019-05-05T16:04:54.098Z,100195.30
2019-05-05T16:07:24.266Z,100198.54
2019-05-05T16:09:53.835Z,100205.84
2019-05-05T16:12:33.389Z,100200.50
2019-05-05T16:15:13.823Z,100206.14
2019-05-05T16:17:48.448Z,100208.67
2019-05-05T16:20:24.371Z,100212.97
2019-05-05T16:23:14.299Z,100211.65
2019-05-05T16:25:46.295Z,100209.42
2019-05-05T16:28:14.600Z,100213.78
2019-05-05T16:30:44.553Z,100215.10
2019-05-05T16:33:13.897Z,100218.77
2019-05-05T16:35:43.756Z,100213.39
2019-05-05T16:38:14.902Z,100213.20
2019-05-05T16:40:44.468Z,100220.05
2019-05-05T16:43:16.560Z,100213.77
2019-05-05T16:45:44.684Z,100217.80
2019-05-05T16:48:16.220Z,100218.11
2019-05-05T16:50:45.399Z,100211.77
2019-05-05T16:53:34.296Z,100211.94
2019-05-05T16:56:04.503Z,100220.91
2019-05-05T16:58:33.842Z,100215.92
2019-05-05T17:01:03.765Z,100223.14
2019-05-05T17:03:33.067Z,100218.84
2019-05-05T17:06:03.774Z,100220.24
2019-05-05T17:08:33.752Z,100223.84
2019-05-05T17:11:03.105Z,100224.32
2019-05-05T17:13:46.946Z,100219.53
2019-05-05T17:16:35.283Z,100219.55
2019-05-05T17:19:23.555Z,100219.17
2019-05-05T17:22:11.188Z,100226.36
2019-05-05T17:24:40.338Z,100227.30
2019-05-05T17:27:09.419Z,100216.01
2019-05-05T17:29:38.703Z,100221.34
2019-05-05T17:32:07.904Z,100217.02
2019-05-05T17:34:37.143Z,100222.70
2019-05-05T17:37:07.992Z,100221.82
2019-05-05T17:39:43.643Z,100225.33
2019-05-05T17:42:36.643Z,100218.76
2019-05-05T17:45:34.329Z,100219.19
2019-05-05T17:48:16.774Z,100207.92
2019-05-05T17:51:04.402Z,100210.16
2019-05-05T17:53:39.694Z,100213.68
2019-05-05T17:56:10.941Z,100211.21
2019-05-05T17:58:40.044Z,100218.31
2019-05-05T18:01:09.132Z,100136.91
2019-05-05T18:03:38.286Z,100221.88
2019-05-05T18:06:18.200Z,100224.56
2019-05-05T18:08:54.065Z,100227.66
2019-05-05T18:11:47.265Z,100229.44
2019-05-05T18:14:20.893Z,100232.21
2019-05-05T18:16:50.109Z,100230.11
2019-05-05T18:19:19.136Z,100238.45
2019-05-05T18:21:48.376Z,100241.54
2019-05-05T18:24:18.747Z,100237.64
2019-05-05T18:26:47.801Z,100242.51
2019-05-05T18:29:16.860Z,100246.48
2019-05-05T18:31:45.984Z,100247.84
2019-05-05T18:34:15.041Z,100246.56
2019-05-05T18:36:44.640Z,100251.81
2019-05-05T18:39:13.855Z,100251.42
2019-05-05T18:41:51.803Z,100255.40
2019-05-05T18:44:31.008Z,100256.77
2019-05-05T18:47:17.527Z,100261.63
2019-05-05T18:49:44.317Z,100265.20
2019-05-05T18:52:13.971Z,100262.59
2019-05-05T18:54:43.731Z,100263.94
2019-05-05T18:57:13.005Z,100264.84
2019-05-05T18:59:42.035Z,100269.23
2019-05-05T19:02:29.099Z,100265.75
2019-05-05T19:05:15.719Z,100273.19
2019-05-05T19:07:55.517Z,100265.34
2019-05-05T19:10:19.474Z,100272.83
2019-05-05T19:12:50.744Z,100274.16
2019-05-05T19:15:19.459Z,100280.28
2019-05-05T19:17:48.613Z,100281.61
2019-05-05T19:20:36.633Z,100279.02
2019-05-05T19:23:06.080Z,100289.94
2019-05-05T19:25:35.876Z,100287.34
2019-05-05T19:28:05.285Z,100287.30
2019-05-05T19:30:36.084Z,100288.20
2019-05-05T19:33:05.747Z,100292.14
2019-05-05T19:35:43.977Z,100294.78
2019-05-05T19:38:05.804Z,100293.90
2019-05-05T19:40:34.858Z,100300.03
2019-05-05T19:43:04.748Z,100302.23
2019-05-05T19:45:34.595Z,100301.34
2019-05-05T19:48:06.036Z,100300.95
2019-05-05T19:50:41.949Z,100303.56
2019-05-05T19:53:24.740Z,100300.52
2019-05-05T19:55:54.858Z,100308.37
2019-05-05T19:58:24.101Z,100304.02
2019-05-05T20:00:54.927Z,100310.98
2019-05-05T20:03:24.262Z,100306.19
2019-05-05T20:05:54.102Z,100310.55
2019-05-05T20:08:24.056Z,100314.50
2019-05-05T20:10:54.138Z,100306.17
2019-05-05T20:13:23.366Z,100310.55
2019-05-05T20:16:04.486Z,100303.14
2019-05-05T20:18:34.243Z,100305.74
2019-05-05T20:21:06.898Z,100307.03
2019-05-05T20:23:34.196Z,100314.01
2019-05-05T20:26:04.057Z,100306.59
2019-05-05T20:28:33.897Z,100311.38
2019-05-05T20:31:03.687Z,100318.79
2019-05-05T20:33:46.964Z,100317.00
2019-05-05T20:36:19.231Z,100320.49
2019-05-05T20:38:50.550Z,100319.14
2019-05-05T20:41:20.745Z,100320.42
2019-05-05T20:43:49.948Z,100321.72
2019-05-05T20:46:19.130Z,100324.75
2019-05-05T20:49:09.134Z,100329.96
2019-05-05T20:51:45.044Z,100325.59
2019-05-05T20:54:28.111Z,100335.16
2019-05-05T20:57:04.319Z,100333.41
2019-05-05T20:59:34.254Z,100333.38
2019-05-05T21:02:04.451Z,100339.44
2019-05-05T21:04:34.523Z,100339.88
2019-05-05T21:07:04.578Z,100347.69
2019-05-05T21:09:34.639Z,100343.76
2019-05-05T21:12:04.725Z,100348.09
2019-05-05T21:14:37.399Z,100340.27
2019-05-05T21:17:04.786Z,100343.77
2019-05-05T21:19:34.527Z,100336.77
2019-05-05T21:22:22.763Z,100340.26
2019-05-05T21:24:54.140Z,100339.36
2019-05-05T21:27:24.474Z,100338.47
2019-05-05T21:29:54.397Z,100337.12
2019-05-05T21:32:25.370Z,100336.64
2019-05-05T21:34:54.728Z,100339.70
2019-05-05T21:37:24.911Z,100343.16
2019-05-05T21:39:55.129Z,100340.48
2019-05-05T21:42:24.439Z,100340.48
2019-05-05T21:44:53.992Z,100340.86
2019-05-05T21:47:23.999Z,100335.19
2019-05-05T21:49:54.241Z,100339.51
2019-05-05T21:52:35.568Z,100337.75
2019-05-05T21:55:29.900Z,100340.77
2019-05-05T21:58:23.284Z,100342.88
2019-05-05T22:01:15.148Z,100346.77
2019-05-05T22:03:44.456Z,100350.62
2019-05-05T22:06:14.559Z,100358.83
2019-05-05T22:08:43.774Z,100354.05
2019-05-05T22:11:14.646Z,100351.39
2019-05-05T22:13:44.219Z,100353.09
2019-05-05T22:16:13.774Z,100350.43
2019-05-05T22:18:44.621Z,100343.86
2019-05-05T22:21:43.567Z,100354.72
2019-05-05T22:24:24.788Z,100351.65
2019-05-05T22:26:54.285Z,100348.46
2019-05-05T22:29:24.895Z,100344.48
2019-05-05T22:31:54.144Z,100345.77
2019-05-05T22:34:24.098Z,100347.06
2019-05-05T22:36:53.343Z,100341.84
2019-05-05T22:39:24.388Z,100340.91
2019-05-05T22:41:54.505Z,100343.52
2019-05-05T22:44:24.357Z,100341.77
2019-05-05T22:46:53.842Z,100342.19
2019-05-05T22:49:24.183Z,100344.33
2019-05-05T22:51:54.170Z,100340.80
2019-05-05T22:54:24.112Z,100342.55
2019-05-05T22:56:53.848Z,100345.11
2019-05-05T22:59:24.216Z,100345.50
2019-05-05T23:01:54.198Z,100349.41
2019-05-05T23:04:43.711Z,100349.38
2019-05-05T23:07:28.647Z,100346.30
2019-05-05T23:09:57.797Z,100344.03
2019-05-05T23:12:26.894Z,100353.50
2019-05-05T23:14:55.939Z,100347.44
2019-05-05T23:17:35.135Z,100342.64
2019-05-05T23:20:28.018Z,100346.07
2019-05-05T23:23:04.757Z,100342.16
2019-05-05T23:25:37.550Z,100342.11
2019-05-05T23:28:06.643Z,100341.59
2019-05-05T23:30:41.581Z,100335.53
2019-05-05T23:33:06.546Z,100335.95
2019-05-05T23:35:35.547Z,100339.82
2019-05-05T23:38:04.662Z,100339.79
2019-05-05T23:40:34.014Z,100339.73
2019-05-05T23:43:04.512Z,100342.33
2019-05-05T23:45:34.097Z,100334.48
2019-05-05T23:48:03.812Z,100331.85
2019-05-05T23:50:33.827Z,100332.70
2019-05-05T23:53:02.990Z,100328.77
2019-05-05T23:55:32.024Z,100330.04
2019-05-05T23:58:03.755Z,100329.19
